Time;durP1;ratioP1;P1;durP2;ratioP2;P2;SDS_P1;SDS_P2;PMS_P1;PMS_P2;Temp;Humidity;BMP_temperature;BMP_pressure;BME280_temperature;BME280_humidity;BME280_pressure;Samples;Min_cycle;Max_cycle;Signal;HPM_P1;HPM_P2
2023/01/06 00:01:06;;;;;;;;;;;10.10;99.90;;;;;;5033330;28;19921;-73
2023/01/06 00:03:32;;;;;;;;;;;10.20;99.90;;;;;;5031659;28;19920;-73
2023/01/06 00:05:59;;;;;;;;;;;10.10;99.90;;;;;;5032063;28;20124;-73
2023/01/06 00:08:24;;;;;;;;;;;10.10;99.90;;;;;;5033124;28;20008;-73
2023/01/06 00:10:50;;;;;;;;;;;10.10;99.90;;;;;;5031426;28;20009;-73
2023/01/06 00:13:15;;;;;;;;;;;10.10;99.90;;;;;;5032121;28;19947;-73
2023/01/06 00:15:41;;;;;;;;;;;10.00;99.90;;;;;;5031379;28;19929;-73
2023/01/06 00:18:06;;;;;;;;;;;10.00;99.90;;;;;;5032259;28;19921;-73
2023/01/06 00:20:33;;;;;;;;;;;10.00;99.90;;;;;;5031666;28;20392;-73
2023/01/06 00:22:58;;;;;;;;;;;9.90;99.90;;;;;;5033036;28;19929;-72
2023/01/06 00:25:24;;;;;;;;;;;10.10;99.90;;;;;;5032688;28;19924;-72
2023/01/06 00:27:49;;;;;;;;;;;10.00;99.90;;;;;;5031923;28;19921;-72
2023/01/06 00:30:18;;;;;;;;;;;9.90;99.90;;;;;;5032469;28;19936;-74
2023/01/06 00:32:43;;;;;;;;;;;9.90;99.90;;;;;;5031973;28;19917;-73
2023/01/06 00:35:09;;;;;;;;;;;9.90;99.90;;;;;;5030383;28;19964;-73
2023/01/06 00:37:34;;;;;;;;;;;10.10;99.90;;;;;;5032311;28;19935;-73
2023/01/06 00:40:00;;;;;;;;;;;10.00;99.90;;;;;;5031841;28;19968;-73
2023/01/06 00:42:25;;;;;;;;;;;10.10;99.90;;;;;;5030908;28;19928;-73
2023/01/06 00:44:51;;;;;;;;;;;10.20;99.90;;;;;;5031558;28;20380;-73
2023/01/06 00:47:20;;;;;;;;;;;10.10;99.90;;;;;;5031832;28;20373;-74
2023/01/06 00:49:46;;;;;;;;;;;9.90;99.90;;;;;;5029076;28;20014;-74
2023/01/06 00:52:12;;;;;;;;;;;9.90;99.90;;;;;;5030102;28;19956;-74
2023/01/06 00:54:41;;;;;;;;;;;9.80;99.90;;;;;;5031351;28;20364;-72
2023/01/06 00:57:07;;;;;;;;;;;10.00;99.90;;;;;;5030976;28;19967;-73
2023/01/06 00:59:33;;;;;;;;;;;9.70;99.90;;;;;;5030761;28;20891;-73
2023/01/06 01:01:58;;;;;;;;;;;9.80;99.90;;;;;;5030462;28;19975;-73
2023/01/06 01:04:24;;;;;;;;;;;9.80;99.90;;;;;;5031642;28;19975;-72
2023/01/06 01:06:50;;;;;;;;;;;9.80;99.90;;;;;;5014146;28;19927;-72
2023/01/06 01:09:18;;;;;;;;;;;9.70;99.90;;;;;;5031445;28;19971;-72
2023/01/06 01:14:28;;;;;;;;;;;9.70;99.90;;;;;;5029099;28;19925;-73
2023/01/06 01:16:54;;;;;;;;;;;9.80;99.90;;;;;;5013026;28;19991;-73
2023/01/06 01:19:20;;;;;;;;;;;9.70;99.90;;;;;;5013927;28;20332;-72
2023/01/06 01:21:46;;;;;;;;;;;9.70;99.90;;;;;;5013916;28;20040;-73
2023/01/06 01:24:11;;;;;;;;;;;9.60;99.90;;;;;;5031721;28;20404;-72
2023/01/06 01:26:37;;;;;;;;;;;9.70;99.90;;;;;;5031436;28;19925;-72
2023/01/06 01:29:02;;;;;;;;;;;9.80;99.90;;;;;;5032217;28;20399;-72
2023/01/06 01:31:28;;;;;;;;;;;9.80;99.90;;;;;;5012885;28;19931;-73
2023/01/06 01:33:54;;;;;;;;;;;9.90;99.90;;;;;;5031724;28;19921;-72
2023/01/06 01:36:19;;;;;;;;;;;10.30;99.90;;;;;;5012936;28;20007;-73
2023/01/06 01:38:45;;;;;;;;;;;9.90;99.90;;;;;;5032194;28;20284;-73
2023/01/06 01:41:15;;;;;;;;;;;10.00;99.90;;;;;;5014194;28;19925;-73
2023/01/06 01:43:48;;;;;;;;;;;9.90;99.90;;;;;;5012752;28;19921;-73
2023/01/06 01:46:16;;;;;;;;;;;9.90;99.90;;;;;;5014006;28;20346;-74
2023/01/06 01:48:42;;;;;;;;;;;9.90;99.90;;;;;;5014102;28;20015;-74
2023/01/06 01:51:10;;;;;;;;;;;9.80;99.90;;;;;;5031308;28;20388;-73
2023/01/06 01:53:45;;;;;;;;;;;9.80;99.90;;;;;;5013452;28;20368;-73
2023/01/06 01:56:12;;;;;;;;;;;9.90;99.90;;;;;;5011344;28;19960;-74
2023/01/06 01:58:51;;;;;;;;;;;9.80;99.90;;;;;;5013373;28;19921;-74
2023/01/06 02:01:17;;;;;;;;;;;9.80;99.90;;;;;;5030886;28;19927;-73
2023/01/06 02:03:43;;;;;;;;;;;9.70;99.90;;;;;;5017926;28;19921;-73
2023/01/06 02:06:16;;;;;;;;;;;9.80;99.90;;;;;;5029561;28;19932;-73
2023/01/06 02:08:52;;;;;;;;;;;9.80;99.90;;;;;;5030378;28;19921;-73
2023/01/06 02:11:17;;;;;;;;;;;9.80;99.90;;;;;;5030419;28;20438;-74
2023/01/06 02:13:46;;;;;;;;;;;9.80;99.90;;;;;;5029646;28;19928;-74
2023/01/06 02:16:12;;;;;;;;;;;9.70;99.90;;;;;;5030198;28;19991;-73
2023/01/06 02:18:49;;;;;;;;;;;9.70;99.90;;;;;;5031381;28;20392;-73
2023/01/06 02:21:30;;;;;;;;;;;9.80;99.90;;;;;;5033292;28;20014;-73
2023/01/06 02:24:02;;;;;;;;;;;9.80;99.90;;;;;;5033796;28;19928;-74
2023/01/06 02:26:52;;;;;;;;;;;9.80;99.90;;;;;;5029380;28;20327;-74
2023/01/06 02:29:36;;;;;;;;;;;9.90;99.90;;;;;;5033524;28;19925;-74
2023/01/06 02:32:01;;;;;;;;;;;9.90;99.90;;;;;;5031131;28;20368;-74
2023/01/06 02:34:27;;;;;;;;;;;10.00;99.90;;;;;;5033884;28;19947;-74
2023/01/06 02:37:11;;;;;;;;;;;10.20;99.90;;;;;;5033540;28;19921;-74
2023/01/06 02:39:42;;;;;;;;;;;10.10;99.90;;;;;;5030280;28;19921;-74
2023/01/06 02:42:27;;;;;;;;;;;10.10;99.90;;;;;;5035041;28;19928;-74
2023/01/06 02:45:11;;;;;;;;;;;10.10;99.90;;;;;;5033311;28;19921;-74
2023/01/06 02:47:42;;;;;;;;;;;10.20;99.90;;;;;;5030304;28;20368;-73
2023/01/06 02:50:37;;;;;;;;;;;10.00;99.90;;;;;;5033340;28;19924;-73
2023/01/06 02:53:03;;;;;;;;;;;10.10;99.90;;;;;;5020152;28;20442;-73
2023/01/06 02:55:41;;;;;;;;;;;10.10;99.90;;;;;;5032282;28;19931;-73
2023/01/06 02:58:10;;;;;;;;;;;10.10;99.90;;;;;;5033305;28;20416;-74
2023/01/06 03:00:35;;;;;;;;;;;10.10;99.90;;;;;;5032635;28;20016;-73
2023/01/06 03:03:03;;;;;;;;;;;10.20;99.90;;;;;;5032810;28;20388;-74
2023/01/06 03:05:31;;;;;;;;;;;10.00;99.90;;;;;;5034484;28;19925;-73
2023/01/06 03:07:59;;;;;;;;;;;10.00;99.90;;;;;;5015127;28;19921;-73
2023/01/06 03:10:25;;;;;;;;;;;10.10;99.90;;;;;;5034459;28;19921;-73
2023/01/06 03:13:11;;;;;;;;;;;10.00;99.90;;;;;;5016908;28;19925;-74
2023/01/06 03:15:37;;;;;;;;;;;10.00;99.90;;;;;;5031901;28;19929;-73
2023/01/06 03:18:02;;;;;;;;;;;10.10;99.90;;;;;;5033748;28;19921;-74
2023/01/06 03:20:28;;;;;;;;;;;10.10;99.90;;;;;;5033979;28;19932;-73
2023/01/06 03:22:53;;;;;;;;;;;10.10;99.90;;;;;;5015210;28;19925;-74
2023/01/06 03:25:19;;;;;;;;;;;10.20;99.90;;;;;;5015986;28;20011;-73
2023/01/06 03:27:45;;;;;;;;;;;10.10;99.90;;;;;;5033532;28;19921;-73
2023/01/06 03:30:11;;;;;;;;;;;10.10;99.90;;;;;;5032904;28;19928;-73
2023/01/06 03:32:39;;;;;;;;;;;10.10;99.90;;;;;;5015614;28;19917;-73
2023/01/06 03:35:08;;;;;;;;;;;10.00;99.90;;;;;;5033639;28;19921;-73
2023/01/06 03:37:52;;;;;;;;;;;10.00;99.90;;;;;;5032923;28;19932;-73
2023/01/06 03:40:26;;;;;;;;;;;9.90;99.90;;;;;;5033015;28;19944;-73
2023/01/06 03:43:15;;;;;;;;;;;10.10;99.90;;;;;;5011776;28;19927;-73
2023/01/06 03:45:43;;;;;;;;;;;10.10;99.90;;;;;;5033870;28;19928;-73
2023/01/06 03:48:16;;;;;;;;;;;10.10;99.90;;;;;;5016044;28;20312;-73
2023/01/06 03:51:08;;;;;;;;;;;10.20;99.90;;;;;;5029216;28;20008;-73
2023/01/06 03:53:37;;;;;;;;;;;10.10;99.90;;;;;;5012610;28;19925;-72
2023/01/06 03:56:15;;;;;;;;;;;10.20;99.90;;;;;;5033402;28;19928;-73
2023/01/06 03:58:40;;;;;;;;;;;10.00;99.90;;;;;;5014839;28;20014;-72
2023/01/06 04:01:07;;;;;;;;;;;10.00;99.90;;;;;;5015320;28;19961;-72
2023/01/06 04:03:33;;;;;;;;;;;10.00;99.90;;;;;;5032740;28;19928;-72
2023/01/06 04:05:58;;;;;;;;;;;10.10;99.90;;;;;;5032600;28;20189;-73
2023/01/06 04:08:24;;;;;;;;;;;10.00;99.90;;;;;;5032680;28;19931;-74
2023/01/06 04:10:50;;;;;;;;;;;10.00;99.90;;;;;;5015286;28;19921;-73
2023/01/06 04:13:15;;;;;;;;;;;9.90;99.90;;;;;;5014475;28;19975;-73
2023/01/06 04:15:41;;;;;;;;;;;9.90;99.90;;;;;;5033394;28;19921;-73
2023/01/06 04:18:07;;;;;;;;;;;9.90;99.90;;;;;;5014217;28;19991;-73
2023/01/06 04:20:32;;;;;;;;;;;9.90;99.90;;;;;;5015330;28;20273;-73
2023/01/06 04:22:58;;;;;;;;;;;10.20;99.90;;;;;;5014737;28;19925;-73
2023/01/06 04:25:26;;;;;;;;;;;10.00;99.90;;;;;;5014021;28;19960;-73
2023/01/06 04:27:51;;;;;;;;;;;9.90;99.90;;;;;;5032169;28;19975;-73
2023/01/06 04:30:17;;;;;;;;;;;10.00;99.90;;;;;;5032738;28;19921;-73
2023/01/06 04:32:43;;;;;;;;;;;10.00;99.90;;;;;;5014245;28;19921;-73
2023/01/06 04:35:09;;;;;;;;;;;10.00;99.90;;;;;;5014432;28;19964;-73
2023/01/06 04:37:34;;;;;;;;;;;10.10;99.90;;;;;;5010838;28;20674;-73
2023/01/06 04:40:00;;;;;;;;;;;10.20;99.90;;;;;;5031290;28;20392;-73
2023/01/06 04:42:25;;;;;;;;;;;10.10;99.90;;;;;;5031998;28;20288;-73
2023/01/06 04:44:51;;;;;;;;;;;10.10;99.90;;;;;;5013355;28;19921;-72
2023/01/06 04:47:17;;;;;;;;;;;10.10;99.90;;;;;;5013606;28;19964;-73
2023/01/06 04:49:42;;;;;;;;;;;10.10;99.90;;;;;;5032685;28;20386;-73
2023/01/06 04:52:08;;;;;;;;;;;10.90;99.90;;;;;;5032401;28;19931;-74
2023/01/06 04:54:34;;;;;;;;;;;10.10;99.90;;;;;;5013889;28;19925;-73
2023/01/06 04:56:59;;;;;;;;;;;10.10;99.90;;;;;;5032167;28;19921;-73
2023/01/06 04:59:25;;;;;;;;;;;10.30;99.90;;;;;;5032007;28;19929;-74
2023/01/06 05:01:50;;;;;;;;;;;10.10;99.90;;;;;;5013620;28;19917;-74
2023/01/06 05:04:19;;;;;;;;;;;10.00;99.90;;;;;;5022990;28;19924;-73
2023/01/06 05:06:44;;;;;;;;;;;9.90;99.90;;;;;;5031757;28;20008;-74
2023/01/06 05:09:10;;;;;;;;;;;10.00;99.90;;;;;;5030348;28;19928;-74
2023/01/06 05:11:35;;;;;;;;;;;10.10;99.90;;;;;;5031546;28;20032;-74
2023/01/06 05:14:01;;;;;;;;;;;10.00;99.90;;;;;;5031999;28;19920;-73
2023/01/06 05:16:30;;;;;;;;;;;9.80;99.90;;;;;;5031249;28;19921;-74
2023/01/06 05:18:56;;;;;;;;;;;9.80;99.90;;;;;;5030731;28;19921;-74
2023/01/06 05:21:26;;;;;;;;;;;9.70;99.90;;;;;;5030726;28;19924;-75
2023/01/06 05:23:51;;;;;;;;;;;9.60;99.90;;;;;;5031781;28;19933;-74
2023/01/06 05:26:18;;;;;;;;;;;9.60;99.90;;;;;;5030630;28;20340;-74
2023/01/06 05:28:44;;;;;;;;;;;9.50;99.90;;;;;;5031105;28;19917;-74
2023/01/06 05:31:10;;;;;;;;;;;9.40;99.90;;;;;;5030997;28;19921;-74
2023/01/06 05:33:35;;;;;;;;;;;9.40;99.90;;;;;;5030204;28;20015;-74
2023/01/06 05:36:05;;;;;;;;;;;9.50;99.90;;;;;;5031070;28;19964;-74
2023/01/06 05:38:31;;;;;;;;;;;9.40;99.90;;;;;;5031451;28;20364;-74
2023/01/06 05:41:00;;;;;;;;;;;9.40;99.90;;;;;;5029796;28;19968;-74
2023/01/06 05:43:26;;;;;;;;;;;9.50;99.90;;;;;;5029725;28;19964;-74
2023/01/06 05:45:54;;;;;;;;;;;9.40;99.90;;;;;;5030327;28;19928;-74
2023/01/06 05:48:23;;;;;;;;;;;9.60;99.90;;;;;;5031695;28;19921;-74
2023/01/06 05:50:49;;;;;;;;;;;9.30;99.90;;;;;;5029083;28;19924;-74
2023/01/06 05:53:14;;;;;;;;;;;9.20;99.90;;;;;;5034002;28;19976;-75
2023/01/06 05:55:40;;;;;;;;;;;10.00;99.90;;;;;;5035222;28;19921;-74
2023/01/06 05:58:05;;;;;;;;;;;9.30;99.90;;;;;;5034244;28;19921;-74
2023/01/06 06:00:31;;;;;;;;;;;9.40;99.90;;;;;;5035228;28;20384;-74
2023/01/06 06:02:56;;;;;;;;;;;9.30;99.90;;;;;;5035102;28;19932;-74
2023/01/06 06:05:22;;;;;;;;;;;9.40;99.90;;;;;;5016464;28;19928;-74
2023/01/06 06:07:54;;;;;;;;;;;9.40;99.90;;;;;;5035417;28;20003;-74
2023/01/06 06:10:19;;;;;;;;;;;9.30;99.90;;;;;;5031358;28;19968;-74
2023/01/06 06:12:45;;;;;;;;;;;9.30;99.90;;;;;;5034353;28;19967;-74
2023/01/06 06:15:10;;;;;;;;;;;9.50;99.90;;;;;;5035322;28;19982;-74
2023/01/06 06:17:36;;;;;;;;;;;9.40;99.90;;;;;;5016399;28;20716;-74
2023/01/06 06:20:02;;;;;;;;;;;9.40;99.90;;;;;;5017342;28;19921;-74
2023/01/06 06:22:27;;;;;;;;;;;9.40;99.90;;;;;;5016993;28;19921;-74
2023/01/06 06:24:53;;;;;;;;;;;9.50;99.90;;;;;;5034656;28;20004;-74
2023/01/06 06:27:18;;;;;;;;;;;9.40;99.90;;;;;;5017154;28;19932;-74
2023/01/06 06:29:44;;;;;;;;;;;9.50;99.90;;;;;;5034557;28;19921;-74
2023/01/06 06:32:09;;;;;;;;;;;9.50;99.90;;;;;;5034518;28;19936;-73
2023/01/06 06:34:35;;;;;;;;;;;9.60;99.90;;;;;;5017109;28;19921;-73
2023/01/06 06:37:00;;;;;;;;;;;9.70;99.90;;;;;;5035025;28;19921;-74
2023/01/06 06:39:26;;;;;;;;;;;9.70;99.90;;;;;;5015754;28;19983;-74
2023/01/06 06:41:52;;;;;;;;;;;9.70;99.90;;;;;;5034944;28;19921;-74
2023/01/06 06:44:17;;;;;;;;;;;9.80;99.90;;;;;;5034521;28;19920;-73
2023/01/06 06:46:43;;;;;;;;;;;9.90;99.90;;;;;;5033519;28;19921;-73
2023/01/06 06:49:08;;;;;;;;;;;9.70;99.90;;;;;;5017178;28;20380;-73
2023/01/06 06:51:34;;;;;;;;;;;9.70;99.90;;;;;;5033925;28;20369;-74
2023/01/06 06:53:59;;;;;;;;;;;9.60;99.90;;;;;;5016323;28;20292;-72
2023/01/06 06:56:25;;;;;;;;;;;9.50;99.90;;;;;;5016463;28;20019;-72
2023/01/06 06:58:50;;;;;;;;;;;9.30;99.90;;;;;;5016656;28;19921;-72
2023/01/06 07:01:17;;;;;;;;;;;9.20;99.90;;;;;;5015355;28;19932;-73
2023/01/06 07:03:43;;;;;;;;;;;9.00;99.90;;;;;;5033675;28;19929;-72
2023/01/06 07:06:11;;;;;;;;;;;8.70;99.90;;;;;;5034174;28;19929;-73
2023/01/06 07:08:36;;;;;;;;;;;8.60;99.90;;;;;;5015652;28;19956;-72
2023/01/06 07:11:02;;;;;;;;;;;8.70;99.90;;;;;;5034577;28;20014;-72
2023/01/06 07:13:28;;;;;;;;;;;8.30;99.90;;;;;;5016128;28;19968;-73
2023/01/06 07:15:53;;;;;;;;;;;8.40;99.90;;;;;;5033410;28;20293;-73
2023/01/06 07:18:19;;;;;;;;;;;8.10;99.90;;;;;;5034055;28;19924;-72
2023/01/06 07:20:46;;;;;;;;;;;7.90;99.90;;;;;;5034091;28;19975;-73
2023/01/06 07:23:11;;;;;;;;;;;7.90;99.90;;;;;;5033487;28;19928;-72
2023/01/06 07:25:37;;;;;;;;;;;7.80;99.90;;;;;;5033407;28;19931;-72
2023/01/06 07:28:09;;;;;;;;;;;7.70;99.90;;;;;;5033151;28;20295;-72
2023/01/06 07:30:35;;;;;;;;;;;7.60;99.90;;;;;;5033528;28;20471;-72
2023/01/06 07:33:00;;;;;;;;;;;8.20;99.90;;;;;;5033777;28;19967;-73
2023/01/06 07:35:26;;;;;;;;;;;7.50;99.90;;;;;;5014684;28;20327;-73
2023/01/06 07:37:51;;;;;;;;;;;8.00;99.90;;;;;;5016467;28;19968;-73
2023/01/06 07:40:17;;;;;;;;;;;7.40;99.90;;;;;;5033581;28;19921;-72
2023/01/06 07:42:43;;;;;;;;;;;7.40;99.90;;;;;;5032505;28;19921;-72
2023/01/06 07:45:09;;;;;;;;;;;8.00;99.90;;;;;;5015090;28;19929;-73
2023/01/06 07:47:34;;;;;;;;;;;7.30;99.90;;;;;;5033168;28;19921;-72
2023/01/06 07:50:00;;;;;;;;;;;7.20;99.90;;;;;;5032776;28;19921;-73
2023/01/06 07:52:25;;;;;;;;;;;7.10;99.90;;;;;;5032633;28;19921;-74
2023/01/06 07:54:51;;;;;;;;;;;7.10;99.90;;;;;;5015148;28;19925;-76
2023/01/06 07:57:16;;;;;;;;;;;7.10;99.90;;;;;;5031653;28;19924;-73
2023/01/06 07:59:42;;;;;;;;;;;7.40;99.90;;;;;;5033302;28;19925;-74
2023/01/06 08:02:09;;;;;;;;;;;7.50;99.90;;;;;;5033280;28;20376;-74
2023/01/06 08:04:34;;;;;;;;;;;8.00;99.90;;;;;;5025360;28;20296;-74
2023/01/06 08:07:00;;;;;;;;;;;7.00;99.90;;;;;;5031885;28;19921;-72
2023/01/06 08:09:25;;;;;;;;;;;7.10;99.90;;;;;;5032463;28;19943;-70
2023/01/06 08:11:51;;;;;;;;;;;7.00;99.90;;;;;;5032207;28;19928;-71
2023/01/06 08:14:16;;;;;;;;;;;7.30;99.90;;;;;;5032627;28;19975;-70
2023/01/06 08:16:42;;;;;;;;;;;7.00;99.90;;;;;;5032189;28;19975;-70
2023/01/06 08:19:07;;;;;;;;;;;7.10;99.90;;;;;;5030860;28;19921;-72
2023/01/06 08:21:33;;;;;;;;;;;7.20;99.90;;;;;;5031299;28;19924;-71
2023/01/06 08:23:58;;;;;;;;;;;7.10;99.90;;;;;;5032760;28;19929;-71
2023/01/06 08:26:24;;;;;;;;;;;7.10;99.90;;;;;;5030894;28;19935;-74
2023/01/06 08:28:50;;;;;;;;;;;7.40;99.90;;;;;;5029525;28;19936;-70
2023/01/06 08:31:18;;;;;;;;;;;7.10;99.90;;;;;;5031757;28;20024;-74
2023/01/06 08:33:43;;;;;;;;;;;7.20;99.90;;;;;;5031456;28;20281;-80
2023/01/06 08:36:11;;;;;;;;;;;7.20;99.90;;;;;;5031467;28;19928;-74
2023/01/06 08:38:37;;;;;;;;;;;7.20;99.90;;;;;;5031846;28;19921;-74
2023/01/06 08:41:02;;;;;;;;;;;7.30;99.90;;;;;;5032746;28;20357;-75
2023/01/06 08:43:28;;;;;;;;;;;7.50;99.90;;;;;;5031171;28;19966;-84
2023/01/06 08:45:58;;;;;;;;;;;7.70;99.90;;;;;;5029588;28;20063;-78
2023/01/06 08:48:24;;;;;;;;;;;7.80;99.90;;;;;;5030928;28;19932;-81
2023/01/06 08:50:49;;;;;;;;;;;8.00;99.90;;;;;;5026094;28;19925;-74
2023/01/06 08:53:15;;;;;;;;;;;8.50;99.90;;;;;;5028179;28;20372;-77
2023/01/06 08:55:40;;;;;;;;;;;9.80;99.90;;;;;;5028747;28;19921;-75
2023/01/06 08:58:07;;;;;;;;;;;10.20;99.90;;;;;;5028815;28;20332;-74
2023/01/06 09:00:32;;;;;;;;;;;10.40;99.90;;;;;;5030484;28;19928;-75
2023/01/06 09:02:58;;;;;;;;;;;11.00;99.90;;;;;;5029923;28;19925;-77
2023/01/06 09:05:23;;;;;;;;;;;11.30;99.90;;;;;;4997387;28;19932;-73
2023/01/06 09:07:49;;;;;;;;;;;11.20;99.90;;;;;;5014555;28;19941;-69
2023/01/06 09:10:15;;;;;;;;;;;11.60;99.90;;;;;;5013765;28;19921;-70
2023/01/06 09:12:41;;;;;;;;;;;11.40;99.90;;;;;;5011800;28;19921;-70
2023/01/06 09:15:06;;;;;;;;;;;11.10;99.90;;;;;;4993378;28;19929;-69
2023/01/06 09:17:32;;;;;;;;;;;11.20;99.90;;;;;;5012191;28;19925;-69
2023/01/06 09:19:57;;;;;;;;;;;11.40;99.90;;;;;;4999128;28;19975;-71
2023/01/06 09:22:23;;;;;;;;;;;11.80;99.90;;;;;;5013382;28;19925;-71
2023/01/06 09:24:49;;;;;;;;;;;11.60;99.90;;;;;;5013088;28;20372;-71
2023/01/06 09:27:14;;;;;;;;;;;11.40;99.90;;;;;;5012755;28;19921;-71
2023/01/06 09:29:40;;;;;;;;;;;11.10;99.90;;;;;;5008424;28;19929;-69
2023/01/06 09:32:05;;;;;;;;;;;11.30;99.90;;;;;;5015379;28;19921;-71
2023/01/06 09:34:31;;;;;;;;;;;11.50;99.90;;;;;;5012207;28;20000;-71
2023/01/06 09:36:58;;;;;;;;;;;11.30;99.90;;;;;;5002334;28;19944;-71
2023/01/06 09:39:23;;;;;;;;;;;11.80;99.90;;;;;;5001350;28;20365;-70
2023/01/06 09:41:55;;;;;;;;;;;11.70;99.90;;;;;;5005132;28;19932;-70
2023/01/06 09:44:29;;;;;;;;;;;11.40;99.90;;;;;;4995090;28;20355;-69
2023/01/06 09:46:55;;;;;;;;;;;10.80;99.90;;;;;;5004307;28;19921;-69
2023/01/06 09:49:21;;;;;;;;;;;10.70;99.90;;;;;;5000088;28;19922;-70
2023/01/06 09:51:47;;;;;;;;;;;10.80;99.90;;;;;;5008514;28;20008;-71
2023/01/06 09:54:33;;;;;;;;;;;10.70;99.90;;;;;;4999444;28;19925;-70
2023/01/06 09:57:09;;;;;;;;;;;10.80;99.90;;;;;;4986139;28;19930;-71
2023/01/06 09:59:44;;;;;;;;;;;11.50;99.90;;;;;;4985881;28;19921;-82
2023/01/06 10:02:32;;;;;;;;;;;12.30;99.90;;;;;;5005535;28;19980;-69
2023/01/06 10:04:58;;;;;;;;;;;12.70;99.90;;;;;;4998926;28;19921;-69
2023/01/06 10:07:23;;;;;;;;;;;12.30;99.90;;;;;;5029670;28;19995;-69
2023/01/06 10:09:49;;;;;;;;;;;11.80;99.90;;;;;;5010790;28;19921;-69
2023/01/06 10:12:21;;;;;;;;;;;11.50;99.90;;;;;;5010903;28;20328;-70
2023/01/06 10:14:56;;;;;;;;;;;11.80;99.90;;;;;;5010951;28;19921;-69
2023/01/06 10:17:40;;;;;;;;;;;12.40;99.90;;;;;;5010402;28;20012;-70
2023/01/06 10:20:25;;;;;;;;;;;13.20;99.90;;;;;;5011270;28;20008;-70
2023/01/06 10:22:59;;;;;;;;;;;14.30;99.90;;;;;;5008692;28;19928;-70
2023/01/06 10:25:31;;;;;;;;;;;15.30;99.90;;;;;;5009691;28;19928;-71
2023/01/06 10:28:04;;;;;;;;;;;15.60;99.90;;;;;;5013096;28;19936;-71
2023/01/06 10:30:36;;;;;;;;;;;15.90;99.90;;;;;;5009663;28;19929;-71
2023/01/06 10:33:02;;;;;;;;;;;16.70;99.90;;;;;;5010308;28;19928;-70
2023/01/06 10:35:28;;;;;;;;;;;16.80;99.90;;;;;;5012034;28;19971;-72
2023/01/06 10:37:54;;;;;;;;;;;16.90;99.90;;;;;;5029336;28;19921;-70
2023/01/06 10:40:22;;;;;;;;;;;17.20;99.90;;;;;;5032704;28;19998;-71
2023/01/06 10:43:01;;;;;;;;;;;17.00;99.90;;;;;;5033659;28;19921;-71
2023/01/06 10:45:36;;;;;;;;;;;17.30;99.90;;;;;;5014164;28;19948;-71
2023/01/06 10:48:02;;;;;;;;;;;17.40;99.90;;;;;;5030859;28;19929;-71
2023/01/06 10:50:28;;;;;;;;;;;17.40;99.90;;;;;;5014594;28;20436;-72
2023/01/06 10:52:53;;;;;;;;;;;17.00;99.90;;;;;;5014755;28;20004;-71
2023/01/06 10:55:25;;;;;;;;;;;17.30;99.90;;;;;;5013766;28;19924;-72
2023/01/06 10:57:51;;;;;;;;;;;17.40;99.90;;;;;;5015631;28;19921;-71
2023/01/06 11:00:21;;;;;;;;;;;17.30;99.90;;;;;;5032678;28;20297;-72
2023/01/06 11:02:50;;;;;;;;;;;17.40;99.90;;;;;;5016109;28;19925;-71
2023/01/06 11:05:21;;;;;;;;;;;17.40;99.90;;;;;;5013915;28;19921;-72
2023/01/06 11:08:06;;;;;;;;;;;17.60;99.90;;;;;;4996078;28;20008;-71
2023/01/06 11:10:37;;;;;;;;;;;17.70;99.90;;;;;;5009527;28;20392;-72
2023/01/06 11:13:03;;;;;;;;;;;18.00;99.90;;;;;;4992142;28;20391;-71
2023/01/06 11:15:39;;;;;;;;;;;17.90;99.90;;;;;;5013156;28;20017;-71
2023/01/06 11:18:16;;;;;;;;;;;17.80;99.90;;;;;;4993837;28;20336;-71
2023/01/06 11:20:42;;;;;;;;;;;17.60;99.90;;;;;;5013146;28;19924;-71
2023/01/06 11:23:12;;;;;;;;;;;17.10;99.90;;;;;;4996324;28;19921;-71
2023/01/06 11:25:40;;;;;;;;;;;17.00;99.90;;;;;;4992712;28;19925;-71
2023/01/06 11:28:21;;;;;;;;;;;16.50;99.90;;;;;;5006826;28;19922;-71
2023/01/06 11:31:12;;;;;;;;;;;17.00;99.90;;;;;;5009491;28;19922;-71
2023/01/06 11:33:50;;;;;;;;;;;17.50;99.90;;;;;;4985897;28;19921;-70
2023/01/06 11:36:16;;;;;;;;;;;16.80;99.90;;;;;;4995392;28;19964;-72
2023/01/06 11:38:54;;;;;;;;;;;17.50;99.90;;;;;;4995996;28;19922;-71
2023/01/06 11:41:35;;;;;;;;;;;17.40;99.90;;;;;;4994757;28;19917;-70
2023/01/06 11:44:21;;;;;;;;;;;16.70;99.90;;;;;;5007249;28;19987;-70
2023/01/06 11:46:49;;;;;;;;;;;15.80;99.90;;;;;;5008562;28;19922;-70
2023/01/06 11:49:29;;;;;;;;;;;16.80;99.90;;;;;;5010290;28;19922;-72
2023/01/06 11:52:01;;;;;;;;;;;16.00;99.90;;;;;;4992774;28;19922;-71
2023/01/06 11:54:32;;;;;;;;;;;16.20;99.90;;;;;;5011928;28;19976;-69
2023/01/06 11:56:58;;;;;;;;;;;16.00;99.90;;;;;;5011799;28;19932;-69
2023/01/06 11:59:24;;;;;;;;;;;15.40;99.90;;;;;;4994688;28;19925;-69
2023/01/06 12:01:53;;;;;;;;;;;15.10;99.90;;;;;;4993484;28;19952;-71
2023/01/06 12:04:21;;;;;;;;;;;14.50;99.90;;;;;;5022242;28;19921;-74
2023/01/06 12:06:47;;;;;;;;;;;14.40;99.90;;;;;;5014063;28;19921;-77
2023/01/06 12:09:13;;;;;;;;;;;13.90;99.90;;;;;;5031522;28;19921;-76
2023/01/06 12:11:42;;;;;;;;;;;13.90;99.90;;;;;;5013581;28;20000;-75
2023/01/06 12:14:12;;;;;;;;;;;13.60;99.90;;;;;;5014861;28;19921;-77
2023/01/06 12:16:39;;;;;;;;;;;13.40;99.90;;;;;;5031458;28;19974;-77
2023/01/06 12:19:11;;;;;;;;;;;13.10;99.90;;;;;;5015413;28;19928;-74
2023/01/06 12:21:37;;;;;;;;;;;12.90;99.90;;;;;;5013466;28;20356;-76
2023/01/06 12:24:05;;;;;;;;;;;12.50;99.90;;;;;;5013675;28;19933;-72
2023/01/06 12:26:31;;;;;;;;;;;12.20;99.90;;;;;;5013886;28;20009;-75
2023/01/06 12:28:57;;;;;;;;;;;12.10;99.90;;;;;;5032437;28;19921;-75
2023/01/06 12:31:26;;;;;;;;;;;12.10;99.90;;;;;;5013679;28;19928;-75
2023/01/06 12:34:04;;;;;;;;;;;12.20;99.90;;;;;;5014841;28;19917;-73
2023/01/06 12:36:35;;;;;;;;;;;12.40;99.90;;;;;;5031072;28;19972;-73
2023/01/06 12:39:03;;;;;;;;;;;12.30;99.90;;;;;;5030354;28;19955;-69
2023/01/06 12:41:57;;;;;;;;;;;12.10;99.90;;;;;;5010321;28;20166;-71
2023/01/06 12:44:52;;;;;;;;;;;12.00;99.90;;;;;;4981047;28;19926;-72
2023/01/06 12:47:24;;;;;;;;;;;11.80;99.90;;;;;;5003038;28;19921;-71
2023/01/06 12:49:49;;;;;;;;;;;11.60;99.90;;;;;;5031578;28;19925;-70
2023/01/06 12:52:23;;;;;;;;;;;11.30;99.90;;;;;;5030955;28;20306;-69
2023/01/06 12:54:51;;;;;;;;;;;11.10;99.90;;;;;;5009431;28;20059;-69
2023/01/06 12:57:16;;;;;;;;;;;10.90;99.90;;;;;;5013052;28;19921;-70
2023/01/06 13:00:00;;;;;;;;;;;10.70;99.90;;;;;;5013139;28;20323;-70
2023/01/06 13:02:26;;;;;;;;;;;10.60;99.90;;;;;;5028649;28;20292;-72
2023/01/06 13:05:09;;;;;;;;;;;10.30;99.90;;;;;;5031392;28;19921;-71
2023/01/06 13:07:35;;;;;;;;;;;10.10;99.90;;;;;;5012560;28;19921;-71
2023/01/06 13:10:23;;;;;;;;;;;10.10;99.90;;;;;;5028675;28;19925;-71
2023/01/06 13:12:58;;;;;;;;;;;10.00;99.90;;;;;;5001806;28;19932;-71
2023/01/06 13:15:28;;;;;;;;;;;9.80;99.90;;;;;;5012554;28;19921;-71
2023/01/06 13:18:02;;;;;;;;;;;9.80;99.90;;;;;;5012786;28;19932;-71
2023/01/06 13:20:30;;;;;;;;;;;9.80;99.90;;;;;;5028333;28;19925;-71
2023/01/06 13:23:19;;;;;;;;;;;10.00;99.90;;;;;;5029949;28;19968;-71
2023/01/06 13:26:07;;;;;;;;;;;9.70;99.90;;;;;;5005526;28;19921;-71
2023/01/06 13:28:47;;;;;;;;;;;9.60;99.90;;;;;;5030359;28;20011;-72
2023/01/06 13:31:16;;;;;;;;;;;9.60;99.90;;;;;;5028576;28;19921;-72
2023/01/06 13:34:20;;;;;;;;;;;9.60;99.90;;;;;;5011876;28;19960;-73
2023/01/06 13:36:48;;;;;;;;;;;9.50;99.90;;;;;;4931346;29;19922;-72
2023/01/06 13:39:17;;;;;;;;;;;9.50;99.90;;;;;;4930356;29;19934;-72
2023/01/06 13:41:44;;;;;;;;;;;9.50;99.90;;;;;;4978821;28;20283;-72
2023/01/06 13:44:14;;;;;;;;;;;9.30;99.90;;;;;;5011099;28;19925;-70
2023/01/06 13:46:39;;;;;;;;;;;9.30;99.90;;;;;;5027562;28;19921;-70
2023/01/06 13:49:06;;;;;;;;;;;10.10;99.90;;;;;;5030860;28;20004;-70
2023/01/06 13:51:33;;;;;;;;;;;9.30;99.90;;;;;;5030548;28;20008;-70
2023/01/06 13:54:01;;;;;;;;;;;9.30;99.90;;;;;;5030599;28;19968;-70
2023/01/06 13:56:31;;;;;;;;;;;9.40;99.90;;;;;;5010846;28;20394;-71
2023/01/06 13:59:15;;;;;;;;;;;9.30;99.90;;;;;;5009231;28;19921;-71
2023/01/06 14:01:41;;;;;;;;;;;9.30;99.90;;;;;;5026562;28;19925;-71
2023/01/06 14:04:45;;;;;;;;;;;9.50;99.90;;;;;;5019489;28;19928;-71
2023/01/06 14:07:15;;;;;;;;;;;9.10;99.90;;;;;;4951469;28;19922;-71
2023/01/06 14:09:48;;;;;;;;;;;9.30;99.90;;;;;;4969084;28;19925;-71
2023/01/06 14:12:23;;;;;;;;;;;9.30;99.90;;;;;;4993163;28;19959;-71
2023/01/06 14:14:55;;;;;;;;;;;9.50;99.90;;;;;;5035068;28;19921;-71
2023/01/06 14:17:29;;;;;;;;;;;9.20;99.90;;;;;;5032316;28;20000;-70
2023/01/06 14:19:54;;;;;;;;;;;9.30;99.90;;;;;;5035083;28;19921;-71
2023/01/06 14:22:22;;;;;;;;;;;9.40;99.90;;;;;;5032554;28;19920;-71
2023/01/06 14:24:49;;;;;;;;;;;9.10;99.90;;;;;;5030733;28;19921;-71
2023/01/06 14:27:15;;;;;;;;;;;9.60;99.90;;;;;;5033916;28;19928;-71
2023/01/06 14:29:47;;;;;;;;;;;9.40;99.90;;;;;;5030746;28;19925;-71
2023/01/06 14:32:13;;;;;;;;;;;10.00;99.90;;;;;;5031483;28;19928;-71
2023/01/06 14:34:47;;;;;;;;;;;8.90;99.90;;;;;;5031801;28;19921;-71
2023/01/06 14:37:17;;;;;;;;;;;8.90;99.90;;;;;;5032488;28;19921;-71